createdAt,value
2023-02-11T00:01:33.464Z,103241.78
2023-02-11T00:04:01.944Z,103241.78
2023-02-11T00:06:31.856Z,103240.91
2023-02-11T00:08:59.398Z,103241.72
2023-02-11T00:11:30.920Z,103236.38
2023-02-11T00:14:00.214Z,103239.03
2023-02-11T00:16:27.957Z,103245.28
2023-02-11T00:18:55.798Z,103237.22
2023-02-11T00:21:25.969Z,103227.38
2023-02-11T00:23:54.965Z,103227.38
2023-02-11T00:26:25.810Z,103227.38
2023-02-11T00:28:53.702Z,103224.69
2023-02-11T00:31:23.207Z,103228.25
2023-02-11T00:33:50.682Z,103225.63
2023-02-11T00:36:20.809Z,103225.63
2023-02-11T00:38:49.970Z,103223.81
2023-02-11T00:41:18.243Z,103216.69
2023-02-11T00:43:46.159Z,103237.28
2023-02-11T00:46:14.029Z,103238.22
2023-02-11T00:48:41.552Z,103232.94
2023-02-11T00:51:09.532Z,103230.25
2023-02-11T00:53:37.097Z,103225.81
2023-02-11T00:56:04.833Z,103231.19
2023-02-11T00:58:32.154Z,103233.00
2023-02-11T01:00:59.581Z,103245.53
2023-02-11T01:03:45.516Z,103236.72
2023-02-11T01:09:39.127Z,103245.63
2023-02-11T01:12:06.626Z,103243.00
2023-02-11T01:14:33.942Z,103243.06
2023-02-11T01:17:01.246Z,103238.56
2023-02-11T01:19:28.627Z,103242.19
2023-02-11T01:21:55.926Z,103244.00
2023-02-11T01:24:23.173Z,103235.09
2023-02-11T01:26:50.489Z,103242.28
2023-02-11T01:29:17.782Z,103236.00
2023-02-11T01:31:45.089Z,103233.34
2023-02-11T01:34:12.625Z,103226.19
2023-02-11T01:36:40.241Z,103220.88
2023-02-11T01:39:08.763Z,103228.03
2023-02-11T01:41:37.019Z,103224.50
2023-02-11T01:44:27.552Z,103221.81
2023-02-11T01:46:55.689Z,103209.34
2023-02-11T01:49:32.930Z,103208.50
2023-02-11T01:52:23.950Z,103201.34
2023-02-11T01:55:13.195Z,103204.91
2023-02-11T01:57:44.641Z,103202.22
2023-02-11T02:00:21.601Z,103196.00
2023-02-11T02:03:05.220Z,103184.41
2023-02-11T02:05:35.438Z,103183.44
2023-02-11T02:08:23.806Z,103177.28
2023-02-11T02:10:56.458Z,103177.28
2023-02-11T02:13:25.276Z,103176.44
2023-02-11T02:15:55.901Z,103179.97
2023-02-11T02:18:41.745Z,103172.88
2023-02-11T02:21:36.064Z,103173.75
2023-02-11T02:24:34.125Z,103162.16
2023-02-11T02:27:16.013Z,103163.06
2023-02-11T02:30:04.882Z,103163.97
2023-02-11T02:32:47.767Z,103160.38
2023-02-11T02:35:30.206Z,103163.06
2023-02-11T02:38:10.197Z,103161.34
2023-02-11T02:40:52.534Z,103155.97
2023-02-11T02:43:21.618Z,103163.16
2023-02-11T02:45:49.267Z,103156.06
2023-02-11T02:48:29.596Z,103155.19
2023-02-11T02:51:10.733Z,103147.13
2023-02-11T02:53:48.651Z,103147.19
2023-02-11T02:56:59.415Z,103141.81
2023-02-11T02:59:45.365Z,103141.81
2023-02-11T03:02:29.229Z,103144.50
2023-02-11T03:05:05.374Z,103144.50
2023-02-11T03:07:41.662Z,103146.31
2023-02-11T03:10:31.444Z,103135.69
2023-02-11T03:12:59.882Z,103135.69
2023-02-11T03:15:30.997Z,103134.81
2023-02-11T03:18:01.095Z,103135.72
2023-02-11T03:20:33.105Z,103128.56
2023-02-11T03:23:21.252Z,103139.31
2023-02-11T03:26:11.441Z,103135.72
2023-02-11T03:29:03.428Z,103141.09
2023-02-11T03:31:34.419Z,103140.22
2023-02-11T03:34:08.799Z,103131.31
2023-02-11T03:36:49.471Z,103131.31
2023-02-11T03:39:21.357Z,103124.22
2023-02-11T03:41:50.638Z,103129.56
2023-02-11T03:44:19.940Z,103128.63
2023-02-11T03:46:51.505Z,103124.22
2023-02-11T03:49:21.785Z,103122.47
2023-02-11T03:51:52.693Z,103117.13
2023-02-11T03:54:27.647Z,103120.66
2023-02-11T03:56:57.783Z,103117.13
2023-02-11T03:59:25.533Z,103121.63
2023-02-11T04:01:53.166Z,103107.31
2023-02-11T04:04:20.793Z,103117.13
2023-02-11T04:06:48.104Z,103114.47
2023-02-11T04:09:15.484Z,103108.25
2023-02-11T04:11:42.712Z,103111.03
2023-02-11T04:14:10.004Z,103111.88
2023-02-11T04:16:37.432Z,103109.19
2023-02-11T04:19:05.180Z,103110.16
2023-02-11T04:21:32.457Z,103109.25
2023-02-11T04:23:59.767Z,103106.66
2023-02-11T04:26:27.131Z,103105.78
2023-02-11T04:28:54.281Z,103101.38
2023-02-11T04:31:21.613Z,103099.56
2023-02-11T04:33:48.905Z,103102.25
2023-02-11T04:36:16.122Z,103104.91
2023-02-11T04:38:43.395Z,103099.56
2023-02-11T04:41:10.682Z,103095.16
2023-02-11T04:43:38.062Z,103100.50
2023-02-11T04:46:05.536Z,103103.19
2023-02-11T04:48:32.880Z,103100.50
2023-02-11T04:51:00.176Z,103096.94
2023-02-11T04:53:27.653Z,103089.84
2023-02-11T04:55:55.160Z,103095.19
2023-02-11T04:58:22.353Z,103087.16
2023-02-11T05:00:50.034Z,103096.06
2023-02-11T05:03:17.667Z,103090.69
2023-02-11T05:05:44.998Z,103088.97
2023-02-11T05:08:12.747Z,103093.38
2023-02-11T05:10:40.106Z,103093.47
2023-02-11T05:13:07.479Z,103087.22
2023-02-11T05:15:34.798Z,103098.91
2023-02-11T05:18:02.100Z,103089.09
2023-02-11T05:20:29.430Z,103095.31
2023-02-11T05:22:56.764Z,103104.31
2023-02-11T05:25:24.012Z,103101.63
2023-02-11T05:27:51.377Z,103108.81
2023-02-11T05:30:18.755Z,103104.41
2023-02-11T05:32:46.112Z,103108.03
2023-02-11T05:35:13.756Z,103106.25
2023-02-11T05:37:41.062Z,103102.72
2023-02-11T05:40:08.885Z,103108.06
2023-02-11T05:42:36.251Z,103109.03
2023-02-11T05:45:03.765Z,103107.28
2023-02-11T05:47:30.959Z,103102.84
2023-02-11T05:49:58.226Z,103103.78
2023-02-11T05:52:25.613Z,103099.28
2023-02-11T05:54:52.905Z,103096.63
2023-02-11T05:57:20.189Z,103102.84
2023-02-11T05:59:47.530Z,103097.47
2023-02-11T06:02:14.982Z,103093.94
2023-02-11T06:04:42.325Z,103092.13
2023-02-11T06:07:09.649Z,103102.84
2023-02-11T06:09:37.139Z,103101.97
2023-02-11T06:12:05.063Z,103095.75
2023-02-11T06:14:34.194Z,103092.19
2023-02-11T06:17:01.691Z,103088.66
2023-02-11T06:19:28.977Z,103092.28
2023-02-11T06:21:56.784Z,103093.16
2023-02-11T06:24:51.080Z,103093.16
2023-02-11T06:27:12.705Z,103093.19
2023-02-11T06:29:39.988Z,103096.81
2023-02-11T06:32:11.640Z,103096.81
2023-02-11T06:34:43.266Z,103093.28
2023-02-11T06:37:10.518Z,103088.88
2023-02-11T06:39:37.916Z,103091.53
2023-02-11T06:42:07.925Z,103092.41
2023-02-11T06:44:35.314Z,103089.81
2023-02-11T06:47:02.575Z,103091.59
2023-02-11T06:49:30.032Z,103098.75
2023-02-11T06:51:57.367Z,103097.03
2023-02-11T06:54:24.683Z,103094.34
2023-02-11T06:56:52.105Z,103092.63
2023-02-11T06:59:20.756Z,103088.22
2023-02-11T07:01:48.618Z,103093.56
2023-02-11T07:04:16.267Z,103091.81
2023-02-11T07:06:43.623Z,103094.44
2023-02-11T07:09:10.924Z,103094.47
2023-02-11T07:11:38.112Z,103093.56
2023-02-11T07:14:11.167Z,103096.25
2023-02-11T07:16:38.660Z,103106.03
2023-02-11T07:19:06.022Z,103098.94
2023-02-11T07:21:33.221Z,103098.94
2023-02-11T07:24:00.450Z,103097.97
2023-02-11T07:26:28.919Z,103101.53
2023-02-11T07:28:56.396Z,103093.47
2023-02-11T07:31:26.776Z,103081.91
2023-02-11T07:33:56.629Z,103088.22
2023-02-11T07:36:23.853Z,103085.53
2023-02-11T07:38:51.077Z,103093.56
2023-02-11T07:41:21.200Z,103097.13
2023-02-11T07:43:49.043Z,103099.78
2023-02-11T07:46:27.608Z,103101.59
2023-02-11T07:48:55.540Z,103104.28
2023-02-11T07:51:28.496Z,103103.38
2023-02-11T07:53:57.625Z,103100.72
2023-02-11T07:56:25.039Z,103107.88
2023-02-11T07:58:52.320Z,103107.00
2023-02-11T08:01:24.958Z,103107.00
2023-02-11T08:03:53.127Z,103102.59
2023-02-11T08:06:22.670Z,103107.09
2023-02-11T08:08:50.877Z,103118.75
2023-02-11T08:11:20.372Z,103122.31
2023-02-11T08:13:48.126Z,103116.09
2023-02-11T08:16:27.305Z,103128.59
2023-02-11T08:18:57.681Z,103121.44
2023-02-11T08:21:25.923Z,103122.34
2023-02-11T08:23:53.811Z,103125.91
2023-02-11T08:26:27.288Z,103127.72
2023-02-11T08:28:56.365Z,103124.16
2023-02-11T08:31:26.933Z,103127.72
2023-02-11T08:33:57.861Z,103125.97
2023-02-11T08:36:29.155Z,103135.72
2023-02-11T08:39:17.934Z,103135.72
2023-02-11T08:41:48.930Z,103136.56
2023-02-11T08:44:17.713Z,103133.81
2023-02-11T08:46:45.008Z,103135.56
2023-02-11T08:49:12.383Z,103132.00
2023-02-11T08:51:40.073Z,103132.94
2023-02-11T08:54:09.589Z,103141.81
2023-02-11T08:56:38.190Z,103135.56
2023-02-11T08:59:06.214Z,103136.38
2023-02-11T09:01:42.422Z,103138.97
2023-02-11T09:04:10.576Z,103142.47
2023-02-11T09:06:37.822Z,103129.31
2023-02-11T09:09:05.360Z,103130.81
2023-02-11T09:11:35.215Z,103126.06
2023-02-11T09:14:04.392Z,103133.00
2023-02-11T09:16:34.766Z,103129.84
2023-02-11T09:19:03.802Z,103132.53
2023-02-11T09:21:31.203Z,103136.75
2023-02-11T09:23:58.750Z,103128.41
2023-02-11T09:26:31.778Z,103129.88
2023-02-11T09:28:59.842Z,103132.25
2023-02-11T09:31:29.589Z,103131.13
2023-02-11T09:33:59.971Z,103131.88
2023-02-11T09:36:30.302Z,103137.97
2023-02-11T09:39:02.249Z,103127.06
2023-02-11T09:41:39.483Z,103129.59
2023-02-11T09:44:09.684Z,103129.47
2023-02-11T09:46:42.229Z,103126.66
2023-02-11T09:49:21.950Z,103115.00
2023-02-11T09:51:57.133Z,103115.78
2023-02-11T09:54:34.566Z,103110.34
2023-02-11T09:57:02.066Z,103113.84
2023-02-11T09:59:29.384Z,103113.84
2023-02-11T10:02:05.106Z,103105.72
2023-02-11T10:05:00.813Z,103112.91
2023-02-11T10:07:54.055Z,103095.00
2023-02-11T10:10:45.412Z,103103.88
2023-02-11T10:13:43.757Z,103107.41
2023-02-11T10:16:23.208Z,103099.28
2023-02-11T10:19:08.704Z,103101.97
2023-02-11T10:21:50.610Z,103102.84
2023-02-11T10:24:18.397Z,103101.06
2023-02-11T10:26:46.495Z,103107.28
2023-02-11T10:29:42.180Z,103098.28
2023-02-11T10:32:33.431Z,103106.34
2023-02-11T10:35:10.433Z,103095.63
2023-02-11T10:37:37.942Z,103098.28
2023-02-11T10:40:07.505Z,103090.19
2023-02-11T10:42:35.915Z,103086.63
2023-02-11T10:45:07.296Z,103085.50
2023-02-11T10:47:39.684Z,103084.94
2023-02-11T10:50:24.172Z,103075.94
2023-02-11T10:52:51.640Z,103062.63
2023-02-11T10:55:26.126Z,103060.00
2023-02-11T10:57:57.942Z,103052.91
2023-02-11T11:00:36.201Z,103050.25
2023-02-11T11:03:25.540Z,103046.72
2023-02-11T11:05:58.485Z,103048.53
2023-02-11T11:08:41.220Z,103048.53
2023-02-11T11:11:12.256Z,103040.44
2023-02-11T11:13:41.803Z,103033.84
2023-02-11T11:16:12.105Z,103043.94
2023-02-11T11:18:45.221Z,103045.69
2023-02-11T11:21:36.641Z,103037.59
2023-02-11T11:24:04.544Z,103031.28
2023-02-11T11:26:44.707Z,103033.88
2023-02-11T11:29:18.800Z,103026.66
2023-02-11T11:31:56.991Z,103028.31
2023-02-11T11:34:30.147Z,103022.88
2023-02-11T11:36:58.512Z,103015.72
2023-02-11T11:39:29.815Z,103014.84
2023-02-11T11:42:00.606Z,103012.16
2023-02-11T11:44:37.571Z,103006.81
2023-02-11T11:47:31.470Z,103009.41
2023-02-11T11:50:19.506Z,103004.91
2023-02-11T11:52:54.778Z,103001.34
2023-02-11T11:55:26.972Z,103008.53
2023-02-11T11:57:54.255Z,102996.84
2023-02-11T12:00:32.452Z,102988.81
2023-02-11T12:03:21.304Z,102988.81
2023-02-11T12:06:11.801Z,102992.38
2023-02-11T12:09:16.975Z,102987.91
2023-02-11T12:11:59.464Z,102994.03
2023-02-11T12:14:53.328Z,102976.13
2023-02-11T12:17:39.018Z,102968.09
2023-02-11T12:20:32.945Z,102958.25
2023-02-11T12:23:11.506Z,102955.50
2023-02-11T12:25:54.337Z,102954.63
2023-02-11T12:28:24.472Z,102952.72
2023-02-11T12:30:57.815Z,102957.22
2023-02-11T12:33:38.454Z,102951.00
2023-02-11T12:36:12.968Z,102953.59
2023-02-11T12:38:43.259Z,102946.41
2023-02-11T12:42:01.825Z,102942.00
2023-02-11T12:44:32.229Z,102933.00
2023-02-11T12:47:14.227Z,102933.00
2023-02-11T12:49:49.818Z,102933.91
2023-02-11T12:52:44.501Z,102924.06
2023-02-11T12:55:24.368Z,102915.91
2023-02-11T12:57:55.024Z,102907.78
2023-02-11T13:00:45.364Z,102895.34
2023-02-11T13:03:18.954Z,102890.84
2023-02-11T13:05:54.198Z,102889.03
2023-02-11T13:08:50.458Z,102897.06
2023-02-11T13:11:22.973Z,102891.69
2023-02-11T13:13:53.042Z,102884.59
2023-02-11T13:16:39.530Z,102883.66
2023-02-11T13:19:26.819Z,102883.66
2023-02-11T13:22:09.395Z,102873.88
2023-02-11T13:24:53.721Z,102878.28
2023-02-11T13:27:21.358Z,102876.50
2023-02-11T13:30:04.322Z,102871.06
2023-02-11T13:32:56.701Z,102868.38
2023-02-11T13:35:33.000Z,102865.69
2023-02-11T13:38:13.220Z,102853.06
2023-02-11T13:40:41.161Z,102857.50
2023-02-11T13:43:21.998Z,102857.50
2023-02-11T13:45:51.517Z,102860.09
2023-02-11T13:48:31.684Z,102852.06
2023-02-11T13:51:02.809Z,102858.28
2023-02-11T13:53:44.551Z,102854.81
2023-02-11T13:56:32.443Z,102850.22
2023-02-11T13:59:02.458Z,102862.78
2023-02-11T14:02:10.969Z,102856.56
2023-02-11T14:05:22.854Z,102858.28
2023-02-11T14:08:33.480Z,102855.69
2023-02-11T14:11:12.317Z,102854.72
2023-02-11T14:13:48.482Z,102842.19
2023-02-11T14:16:31.587Z,102852.06
2023-02-11T14:19:03.106Z,102858.28
2023-02-11T14:21:30.473Z,102852.91
2023-02-11T14:24:10.888Z,102863.66
2023-02-11T14:26:49.510Z,102852.91
2023-02-11T14:29:34.462Z,102855.59
2023-02-11T14:32:23.311Z,102844.88
2023-02-11T14:35:02.935Z,102839.50
2023-02-11T14:37:36.115Z,102834.22
2023-02-11T14:40:06.439Z,102836.81
2023-02-11T14:42:37.249Z,102823.56
2023-02-11T14:45:08.696Z,102828.88
2023-02-11T14:47:45.278Z,102828.78
2023-02-11T14:50:32.100Z,102830.59
2023-02-11T14:53:01.874Z,102822.56
2023-02-11T14:55:33.521Z,102826.09
2023-02-11T14:58:18.947Z,102818.06
2023-02-11T15:01:00.931Z,102820.81
2023-02-11T15:03:38.831Z,102813.56
2023-02-11T15:06:06.472Z,102812.69
2023-02-11T15:08:38.333Z,102808.19
2023-02-11T15:11:11.826Z,102809.06
2023-02-11T15:13:39.392Z,102814.41
2023-02-11T15:16:10.094Z,102817.09
2023-02-11T15:18:42.062Z,102809.94
2023-02-11T15:21:10.412Z,102810.00
2023-02-11T15:23:39.019Z,102810.88
2023-02-11T15:26:21.369Z,102821.59
2023-02-11T15:28:51.934Z,102816.25
2023-02-11T15:31:23.389Z,102812.69
2023-02-11T15:33:52.157Z,102812.84
2023-02-11T15:36:28.512Z,102807.41
2023-02-11T15:39:32.960Z,102808.38
2023-02-11T15:42:38.064Z,102807.47
2023-02-11T15:45:14.588Z,102804.78
2023-02-11T15:47:54.281Z,102794.97
2023-02-11T15:50:25.554Z,102788.69
2023-02-11T15:52:55.156Z,102789.59
2023-02-11T15:55:23.560Z,102794.88
2023-02-11T15:58:02.041Z,102801.09
2023-02-11T16:00:36.123Z,102794.78
2023-02-11T16:03:04.675Z,102796.59
2023-02-11T16:05:35.469Z,102802.81
2023-02-11T16:08:25.648Z,102800.16
2023-02-11T16:11:03.351Z,102806.38
2023-02-11T16:13:34.742Z,102801.91
2023-02-11T16:16:18.219Z,102804.59
2023-02-11T16:19:03.345Z,102801.00
2023-02-11T16:21:39.301Z,102805.44
2023-02-11T16:24:21.592Z,102797.47
2023-02-11T16:26:55.589Z,102799.22
2023-02-11T16:29:31.834Z,102797.31
2023-02-11T16:32:09.645Z,102798.28
2023-02-11T16:34:37.343Z,102793.78
2023-02-11T16:37:06.169Z,102801.81
2023-02-11T16:39:33.942Z,102792.91
2023-02-11T16:42:01.588Z,102798.28
2023-02-11T16:44:29.472Z,102799.13
2023-02-11T16:47:00.062Z,102797.31
2023-02-11T16:49:33.885Z,102792.91
2023-02-11T16:52:05.904Z,102788.50
2023-02-11T16:54:33.951Z,102794.72
2023-02-11T16:57:05.988Z,102794.72
2023-02-11T16:59:33.306Z,102793.88
2023-02-11T17:02:00.714Z,102787.59
2023-02-11T17:04:31.554Z,102787.59
2023-02-11T17:06:59.406Z,102792.97
2023-02-11T17:09:30.525Z,102782.25
2023-02-11T17:11:58.856Z,102790.28
2023-02-11T17:14:26.241Z,102792.03
2023-02-11T17:16:53.628Z,102792.91
2023-02-11T17:19:21.824Z,102800.00
2023-02-11T17:21:51.460Z,102800.00
2023-02-11T17:24:20.348Z,102796.44
2023-02-11T17:26:48.396Z,102804.50
2023-02-11T17:29:21.020Z,102807.19
2023-02-11T17:31:48.820Z,102806.22
2023-02-11T17:34:16.872Z,102800.88
2023-02-11T17:36:44.461Z,102792.91
2023-02-11T17:39:12.319Z,102797.31
2023-02-11T17:41:40.592Z,102796.44
2023-02-11T17:44:09.017Z,102796.44
2023-02-11T17:46:36.761Z,102798.19
2023-02-11T17:49:04.476Z,102795.44
2023-02-11T17:51:37.679Z,102797.16
2023-02-11T17:54:06.833Z,102798.03
2023-02-11T17:56:37.076Z,102802.44
2023-02-11T17:59:06.274Z,102800.63
2023-02-11T18:01:34.372Z,102805.94
2023-02-11T18:04:02.576Z,102808.53
2023-02-11T18:06:30.331Z,102808.44
2023-02-11T18:08:59.658Z,102809.31
2023-02-11T18:11:27.919Z,102805.69
2023-02-11T18:13:55.441Z,102802.91
2023-02-11T18:16:25.175Z,102816.31
2023-02-11T18:18:52.664Z,102820.75
2023-02-11T18:21:21.806Z,102825.19
2023-02-11T18:23:49.698Z,102824.22
2023-02-11T18:26:19.734Z,102816.94
2023-02-11T18:28:50.178Z,102812.47
2023-02-11T18:31:24.698Z,102812.38
2023-02-11T18:33:58.580Z,102816.03
2023-02-11T18:36:26.236Z,102805.28
2023-02-11T18:38:54.379Z,102814.22
2023-02-11T18:41:21.763Z,102812.38
2023-02-11T18:43:49.289Z,102815.84
2023-02-11T18:46:16.767Z,102820.28
2023-02-11T18:48:45.032Z,102823.84
2023-02-11T18:51:16.155Z,102823.78
2023-02-11T18:53:43.516Z,102821.94
2023-02-11T18:56:16.195Z,102828.28
2023-02-11T18:58:43.703Z,102825.44
2023-02-11T19:01:15.053Z,102817.47
2023-02-11T19:03:43.815Z,102817.41
2023-02-11T19:06:35.240Z,102819.13
2023-02-11T19:09:06.926Z,102826.22
2023-02-11T19:11:46.934Z,102813.66
2023-02-11T19:14:16.664Z,102805.63
2023-02-11T19:16:46.023Z,102798.47
2023-02-11T19:19:14.050Z,102804.69
2023-02-11T19:21:43.694Z,102810.81
2023-02-11T19:24:12.571Z,102808.16
2023-02-11T19:26:39.928Z,102800.09
2023-02-11T19:29:07.441Z,102800.97
2023-02-11T19:31:37.483Z,102806.31
2023-02-11T19:34:05.483Z,102806.31
2023-02-11T19:36:36.295Z,102801.81
2023-02-11T19:39:05.096Z,102799.13
2023-02-11T19:41:33.739Z,102808.94
2023-02-11T19:44:01.946Z,102806.16
2023-02-11T19:46:32.508Z,102808.84
2023-02-11T19:49:00.794Z,102810.59
2023-02-11T19:51:28.650Z,102806.06
2023-02-11T19:53:58.128Z,102803.41
2023-02-11T19:56:25.459Z,102798.03
2023-02-11T19:58:52.719Z,102805.16
2023-02-11T20:01:22.231Z,102806.97
2023-02-11T20:03:51.566Z,102803.34
2023-02-11T20:06:24.757Z,102797.97
2023-02-11T20:08:59.289Z,102799.69
2023-02-11T20:11:28.999Z,102796.06
2023-02-11T20:13:56.975Z,102797.88
2023-02-11T20:16:40.650Z,102796.91
2023-02-11T20:19:16.868Z,102802.28
2023-02-11T20:21:47.071Z,102803.19
2023-02-11T20:24:19.133Z,102803.09
2023-02-11T20:26:48.338Z,102792.34
2023-02-11T20:29:17.867Z,102792.34
2023-02-11T20:31:45.668Z,102790.53
2023-02-11T20:34:13.462Z,102794.09
2023-02-11T20:36:41.250Z,102798.50
2023-02-11T20:39:10.417Z,102796.69
2023-02-11T20:41:41.111Z,102788.66
2023-02-11T20:44:10.959Z,102796.69
2023-02-11T20:46:41.762Z,102796.69
2023-02-11T20:49:14.182Z,102807.34
2023-02-11T20:51:41.713Z,102804.66
2023-02-11T20:54:12.885Z,102802.94
2023-02-11T20:56:40.233Z,102793.91
2023-02-11T20:59:07.860Z,102794.88
2023-02-11T21:01:37.910Z,102802.84
2023-02-11T21:04:08.334Z,102794.88
2023-02-11T21:06:39.455Z,102786.84
2023-02-11T21:09:08.724Z,102787.69
2023-02-11T21:11:36.066Z,102788.56
2023-02-11T21:14:03.564Z,102790.28
2023-02-11T21:16:31.635Z,102778.69
2023-02-11T21:19:00.545Z,102785.88
2023-02-11T21:21:27.810Z,102784.06
2023-02-11T21:23:56.183Z,102782.22
2023-02-11T21:26:23.486Z,102784.91
2023-02-11T21:28:51.995Z,102779.53
2023-02-11T21:31:27.068Z,102778.63
2023-02-11T21:33:55.575Z,102781.31
2023-02-11T21:36:23.978Z,102789.34
2023-02-11T21:38:52.021Z,102791.16
2023-02-11T21:41:22.401Z,102778.69
2023-02-11T21:43:50.901Z,102780.41
2023-02-11T21:46:19.436Z,102776.81
2023-02-11T21:48:47.233Z,102784.84
2023-02-11T21:51:23.495Z,102786.69
2023-02-11T21:53:55.017Z,102779.50
2023-02-11T21:56:22.704Z,102786.69
2023-02-11T21:58:53.409Z,102783.03
2023-02-11T22:01:23.512Z,102787.53
2023-02-11T22:03:50.963Z,102789.34
2023-02-11T22:06:27.224Z,102790.22
2023-02-11T22:08:55.392Z,102792.03
2023-02-11T22:11:23.760Z,102789.34
2023-02-11T22:13:55.553Z,102788.47
2023-02-11T22:16:23.890Z,102786.69
2023-02-11T22:18:51.889Z,102788.41
2023-02-11T22:21:21.802Z,102781.31
2023-02-11T22:23:49.986Z,102780.34
2023-02-11T22:26:21.275Z,102773.25
2023-02-11T22:28:49.622Z,102783.03
2023-02-11T22:31:19.681Z,102783.03
2023-02-11T22:33:47.385Z,102783.91
2023-02-11T22:36:21.301Z,102778.53
2023-02-11T22:38:49.577Z,102782.06
2023-02-11T22:41:17.858Z,102789.25
2023-02-11T22:43:45.657Z,102790.03
2023-02-11T22:46:15.794Z,102786.47
2023-02-11T22:48:43.947Z,102783.81
2023-02-11T22:51:16.946Z,102773.06
2023-02-11T22:53:44.551Z,102781.22
2023-02-11T22:56:15.606Z,102775.84
2023-02-11T22:58:43.550Z,102769.63
2023-02-11T23:01:12.825Z,102777.66
2023-02-11T23:03:40.543Z,102777.66
2023-02-11T23:06:09.045Z,102778.53
2023-02-11T23:08:39.210Z,102776.72
2023-02-11T23:11:09.774Z,102783.81
2023-02-11T23:13:39.563Z,102778.44
2023-02-11T23:16:09.596Z,102774.88
2023-02-11T23:18:39.315Z,102774.03
2023-02-11T23:21:28.008Z,102774.03
2023-02-11T23:23:57.837Z,102770.38
2023-02-11T23:26:25.835Z,102768.66
2023-02-11T23:28:53.615Z,102778.44
2023-02-11T23:31:22.654Z,102781.97
2023-02-11T23:33:51.278Z,102779.22
2023-02-11T23:36:19.749Z,102778.38
2023-02-11T23:38:47.670Z,102766.78
2023-02-11T23:41:15.958Z,102755.06
2023-02-11T23:43:43.899Z,102758.72
2023-02-11T23:46:11.472Z,102760.50
2023-02-11T23:48:40.420Z,102766.78
2023-02-11T23:51:09.788Z,102763.13
2023-02-11T23:53:38.580Z,102755.13
2023-02-11T23:56:08.784Z,102756.03
2023-02-11T23:58:36.412Z,102755.13
